sensor_id;sensor_type;location;lat;lon;timestamp;P1;durP1;ratioP1;P2;durP2;ratioP2
61391;SDS011;47261;52.892;5.738;2023-08-08T00:00:10;9.02;;;1.63;;
61391;SDS011;47261;52.892;5.738;2023-08-08T00:02:37;10.63;;;1.67;;
61391;SDS011;47261;52.892;5.738;2023-08-08T00:05:02;6.83;;;1.50;;
61391;SDS011;47261;52.892;5.738;2023-08-08T00:07:28;5.50;;;1.50;;
61391;SDS011;47261;52.892;5.738;2023-08-08T00:09:56;4.28;;;1.10;;
61391;SDS011;47261;52.892;5.738;2023-08-08T00:12:22;8.00;;;1.50;;
61391;SDS011;47261;52.892;5.738;2023-08-08T00:14:49;5.82;;;1.33;;
61391;SDS011;47261;52.892;5.738;2023-08-08T00:17:14;4.97;;;1.50;;
61391;SDS011;47261;52.892;5.738;2023-08-08T00:19:40;8.23;;;1.60;;
61391;SDS011;47261;52.892;5.738;2023-08-08T00:22:06;6.68;;;1.20;;
61391;SDS011;47261;52.892;5.738;2023-08-08T00:24:32;4.17;;;1.33;;
61391;SDS011;47261;52.892;5.738;2023-08-08T00:26:57;6.05;;;1.77;;
61391;SDS011;47261;52.892;5.738;2023-08-08T00:29:23;6.07;;;1.43;;
61391;SDS011;47261;52.892;5.738;2023-08-08T00:31:48;6.57;;;1.52;;
61391;SDS011;47261;52.892;5.738;2023-08-08T00:34:14;4.63;;;1.50;;
61391;SDS011;47261;52.892;5.738;2023-08-08T00:36:40;6.40;;;1.23;;
61391;SDS011;47261;52.892;5.738;2023-08-08T00:39:05;9.95;;;1.65;;
61391;SDS011;47261;52.892;5.738;2023-08-08T00:41:32;6.65;;;1.50;;
61391;SDS011;47261;52.892;5.738;2023-08-08T00:43:58;7.80;;;1.50;;
61391;SDS011;47261;52.892;5.738;2023-08-08T00:46:24;10.20;;;1.70;;
61391;SDS011;47261;52.892;5.738;2023-08-08T00:48:51;7.20;;;1.42;;
61391;SDS011;47261;52.892;5.738;2023-08-08T00:51:17;5.53;;;1.48;;
61391;SDS011;47261;52.892;5.738;2023-08-08T00:53:44;8.18;;;1.48;;
61391;SDS011;47261;52.892;5.738;2023-08-08T00:56:13;8.67;;;2.03;;
61391;SDS011;47261;52.892;5.738;2023-08-08T00:58:41;8.02;;;1.80;;
61391;SDS011;47261;52.892;5.738;2023-08-08T01:01:10;6.90;;;1.50;;
61391;SDS011;47261;52.892;5.738;2023-08-08T01:03:36;7.68;;;1.63;;
61391;SDS011;47261;52.892;5.738;2023-08-08T01:06:03;7.23;;;1.50;;
61391;SDS011;47261;52.892;5.738;2023-08-08T01:08:39;9.98;;;1.50;;
61391;SDS011;47261;52.892;5.738;2023-08-08T01:11:10;7.03;;;1.70;;
61391;SDS011;47261;52.892;5.738;2023-08-08T01:13:38;8.70;;;1.65;;
61391;SDS011;47261;52.892;5.738;2023-08-08T01:16:05;10.87;;;1.70;;
61391;SDS011;47261;52.892;5.738;2023-08-08T01:18:32;6.63;;;1.40;;
61391;SDS011;47261;52.892;5.738;2023-08-08T01:20:58;6.57;;;1.45;;
61391;SDS011;47261;52.892;5.738;2023-08-08T01:25:56;7.20;;;1.20;;
61391;SDS011;47261;52.892;5.738;2023-08-08T01:28:23;6.90;;;1.40;;
61391;SDS011;47261;52.892;5.738;2023-08-08T01:30:49;5.20;;;1.10;;
61391;SDS011;47261;52.892;5.738;2023-08-08T01:33:15;5.40;;;0.90;;
61391;SDS011;47261;52.892;5.738;2023-08-08T01:35:42;8.03;;;1.10;;
61391;SDS011;47261;52.892;5.738;2023-08-08T01:38:12;7.27;;;1.10;;
61391;SDS011;47261;52.892;5.738;2023-08-08T01:40:44;8.18;;;1.10;;
61391;SDS011;47261;52.892;5.738;2023-08-08T01:43:11;8.18;;;1.27;;
61391;SDS011;47261;52.892;5.738;2023-08-08T01:45:38;10.27;;;1.15;;
61391;SDS011;47261;52.892;5.738;2023-08-08T01:48:08;4.47;;;0.90;;
61391;SDS011;47261;52.892;5.738;2023-08-08T01:50:34;16.33;;;1.42;;
61391;SDS011;47261;52.892;5.738;2023-08-08T01:53:00;8.27;;;1.30;;
61391;SDS011;47261;52.892;5.738;2023-08-08T01:55:26;10.90;;;1.13;;
61391;SDS011;47261;52.892;5.738;2023-08-08T01:57:52;8.37;;;1.20;;
61391;SDS011;47261;52.892;5.738;2023-08-08T02:00:17;5.65;;;0.93;;
61391;SDS011;47261;52.892;5.738;2023-08-08T02:02:43;5.13;;;1.07;;
61391;SDS011;47261;52.892;5.738;2023-08-08T02:05:09;5.43;;;0.80;;
61391;SDS011;47261;52.892;5.738;2023-08-08T02:07:35;8.03;;;1.10;;
61391;SDS011;47261;52.892;5.738;2023-08-08T02:10:00;7.90;;;1.20;;
61391;SDS011;47261;52.892;5.738;2023-08-08T02:12:26;8.25;;;1.20;;
61391;SDS011;47261;52.892;5.738;2023-08-08T02:14:54;6.27;;;0.90;;
61391;SDS011;47261;52.892;5.738;2023-08-08T02:17:20;10.30;;;1.65;;
61391;SDS011;47261;52.892;5.738;2023-08-08T02:19:46;4.57;;;0.85;;
61391;SDS011;47261;52.892;5.738;2023-08-08T02:22:12;8.17;;;1.00;;
61391;SDS011;47261;52.892;5.738;2023-08-08T02:24:37;5.67;;;0.90;;
61391;SDS011;47261;52.892;5.738;2023-08-08T02:27:03;6.27;;;1.17;;
61391;SDS011;47261;52.892;5.738;2023-08-08T02:29:29;7.57;;;0.95;;
61391;SDS011;47261;52.892;5.738;2023-08-08T02:31:55;3.93;;;0.80;;
61391;SDS011;47261;52.892;5.738;2023-08-08T02:34:21;6.03;;;0.70;;
61391;SDS011;47261;52.892;5.738;2023-08-08T02:36:46;7.50;;;0.83;;
61391;SDS011;47261;52.892;5.738;2023-08-08T02:39:12;6.00;;;0.73;;
61391;SDS011;47261;52.892;5.738;2023-08-08T02:41:37;6.17;;;0.60;;
61391;SDS011;47261;52.892;5.738;2023-08-08T02:44:03;7.82;;;0.75;;
61391;SDS011;47261;52.892;5.738;2023-08-08T02:46:29;4.87;;;0.73;;
61391;SDS011;47261;52.892;5.738;2023-08-08T02:48:54;6.20;;;0.77;;
61391;SDS011;47261;52.892;5.738;2023-08-08T02:51:20;7.83;;;0.93;;
61391;SDS011;47261;52.892;5.738;2023-08-08T02:53:46;6.23;;;1.00;;
61391;SDS011;47261;52.892;5.738;2023-08-08T02:56:11;3.75;;;0.55;;
61391;SDS011;47261;52.892;5.738;2023-08-08T02:58:37;8.50;;;0.77;;
61391;SDS011;47261;52.892;5.738;2023-08-08T03:01:02;5.55;;;0.50;;
61391;SDS011;47261;52.892;5.738;2023-08-08T03:03:28;7.80;;;1.10;;
61391;SDS011;47261;52.892;5.738;2023-08-08T03:05:54;5.88;;;0.95;;
61391;SDS011;47261;52.892;5.738;2023-08-08T03:08:19;7.97;;;0.87;;
61391;SDS011;47261;52.892;5.738;2023-08-08T03:10:45;6.00;;;0.77;;
61391;SDS011;47261;52.892;5.738;2023-08-08T03:13:10;9.75;;;1.10;;
61391;SDS011;47261;52.892;5.738;2023-08-08T03:15:36;6.17;;;0.70;;
61391;SDS011;47261;52.892;5.738;2023-08-08T03:18:02;6.43;;;0.70;;
61391;SDS011;47261;52.892;5.738;2023-08-08T03:20:28;10.50;;;0.70;;
61391;SDS011;47261;52.892;5.738;2023-08-08T03:22:54;8.63;;;0.70;;
61391;SDS011;47261;52.892;5.738;2023-08-08T03:25:20;5.65;;;0.82;;
61391;SDS011;47261;52.892;5.738;2023-08-08T03:27:45;6.57;;;0.70;;
61391;SDS011;47261;52.892;5.738;2023-08-08T03:30:11;6.50;;;0.70;;
61391;SDS011;47261;52.892;5.738;2023-08-08T03:32:37;6.53;;;0.80;;
61391;SDS011;47261;52.892;5.738;2023-08-08T03:35:04;7.43;;;0.80;;
61391;SDS011;47261;52.892;5.738;2023-08-08T03:37:30;8.85;;;0.70;;
61391;SDS011;47261;52.892;5.738;2023-08-08T03:39:55;9.15;;;1.00;;
61391;SDS011;47261;52.892;5.738;2023-08-08T03:42:21;8.10;;;0.80;;
61391;SDS011;47261;52.892;5.738;2023-08-08T03:44:46;5.50;;;0.80;;
61391;SDS011;47261;52.892;5.738;2023-08-08T03:47:12;7.80;;;0.70;;
61391;SDS011;47261;52.892;5.738;2023-08-08T03:49:38;4.77;;;0.60;;
61391;SDS011;47261;52.892;5.738;2023-08-08T03:52:03;12.48;;;0.77;;
61391;SDS011;47261;52.892;5.738;2023-08-08T03:54:30;5.10;;;0.73;;
61391;SDS011;47261;52.892;5.738;2023-08-08T03:56:55;6.23;;;0.63;;
61391;SDS011;47261;52.892;5.738;2023-08-08T03:59:21;8.88;;;0.85;;
61391;SDS011;47261;52.892;5.738;2023-08-08T04:01:47;4.40;;;0.70;;
61391;SDS011;47261;52.892;5.738;2023-08-08T04:04:12;7.55;;;1.08;;
61391;SDS011;47261;52.892;5.738;2023-08-08T04:06:38;11.77;;;1.03;;
61391;SDS011;47261;52.892;5.738;2023-08-08T04:09:04;4.67;;;0.57;;
61391;SDS011;47261;52.892;5.738;2023-08-08T04:11:29;9.85;;;0.73;;
61391;SDS011;47261;52.892;5.738;2023-08-08T04:13:55;5.97;;;0.70;;
61391;SDS011;47261;52.892;5.738;2023-08-08T04:16:20;5.57;;;0.80;;
61391;SDS011;47261;52.892;5.738;2023-08-08T04:18:46;6.17;;;0.90;;
61391;SDS011;47261;52.892;5.738;2023-08-08T04:21:11;14.07;;;0.80;;
61391;SDS011;47261;52.892;5.738;2023-08-08T04:23:37;8.23;;;0.80;;
61391;SDS011;47261;52.892;5.738;2023-08-08T04:26:03;7.83;;;0.70;;
61391;SDS011;47261;52.892;5.738;2023-08-08T04:28:28;7.30;;;0.75;;
61391;SDS011;47261;52.892;5.738;2023-08-08T04:30:54;11.60;;;1.23;;
61391;SDS011;47261;52.892;5.738;2023-08-08T04:33:20;6.93;;;0.80;;
61391;SDS011;47261;52.892;5.738;2023-08-08T04:35:45;9.48;;;1.60;;
61391;SDS011;47261;52.892;5.738;2023-08-08T04:38:13;7.75;;;1.00;;
61391;SDS011;47261;52.892;5.738;2023-08-08T04:40:40;8.93;;;1.10;;
61391;SDS011;47261;52.892;5.738;2023-08-08T04:43:05;10.23;;;1.15;;
61391;SDS011;47261;52.892;5.738;2023-08-08T04:45:31;9.27;;;1.27;;
61391;SDS011;47261;52.892;5.738;2023-08-08T04:47:57;19.25;;;1.10;;
61391;SDS011;47261;52.892;5.738;2023-08-08T04:50:22;9.10;;;0.93;;
61391;SDS011;47261;52.892;5.738;2023-08-08T04:52:48;10.23;;;0.95;;
61391;SDS011;47261;52.892;5.738;2023-08-08T04:55:14;6.97;;;0.60;;
61391;SDS011;47261;52.892;5.738;2023-08-08T04:57:40;5.60;;;0.60;;
61391;SDS011;47261;52.892;5.738;2023-08-08T05:00:05;7.33;;;0.90;;
61391;SDS011;47261;52.892;5.738;2023-08-08T05:02:33;10.30;;;1.08;;
61391;SDS011;47261;52.892;5.738;2023-08-08T05:05:00;10.80;;;1.00;;
61391;SDS011;47261;52.892;5.738;2023-08-08T05:07:26;12.33;;;1.23;;
61391;SDS011;47261;52.892;5.738;2023-08-08T05:09:52;6.10;;;0.88;;
61391;SDS011;47261;52.892;5.738;2023-08-08T05:12:17;10.80;;;0.90;;
61391;SDS011;47261;52.892;5.738;2023-08-08T05:14:43;8.13;;;0.93;;
61391;SDS011;47261;52.892;5.738;2023-08-08T05:17:09;5.30;;;0.80;;
61391;SDS011;47261;52.892;5.738;2023-08-08T05:19:34;6.10;;;1.52;;
61391;SDS011;47261;52.892;5.738;2023-08-08T05:22:00;7.10;;;0.60;;
61391;SDS011;47261;52.892;5.738;2023-08-08T05:24:26;7.10;;;0.88;;
61391;SDS011;47261;52.892;5.738;2023-08-08T05:26:51;4.03;;;0.60;;
61391;SDS011;47261;52.892;5.738;2023-08-08T05:29:18;8.82;;;0.80;;
61391;SDS011;47261;52.892;5.738;2023-08-08T05:31:44;4.80;;;0.40;;
61391;SDS011;47261;52.892;5.738;2023-08-08T05:34:11;6.38;;;0.60;;
61391;SDS011;47261;52.892;5.738;2023-08-08T05:36:36;4.03;;;0.60;;
61391;SDS011;47261;52.892;5.738;2023-08-08T05:39:02;6.57;;;1.10;;
61391;SDS011;47261;52.892;5.738;2023-08-08T05:41:28;3.07;;;0.60;;
61391;SDS011;47261;52.892;5.738;2023-08-08T05:43:54;8.15;;;0.70;;
61391;SDS011;47261;52.892;5.738;2023-08-08T05:46:19;11.63;;;1.80;;
61391;SDS011;47261;52.892;5.738;2023-08-08T05:48:45;10.98;;;0.85;;
61391;SDS011;47261;52.892;5.738;2023-08-08T05:51:11;9.50;;;0.65;;
61391;SDS011;47261;52.892;5.738;2023-08-08T05:53:37;5.67;;;0.73;;
61391;SDS011;47261;52.892;5.738;2023-08-08T05:56:03;5.68;;;0.80;;
61391;SDS011;47261;52.892;5.738;2023-08-08T05:58:29;6.40;;;0.60;;
61391;SDS011;47261;52.892;5.738;2023-08-08T06:00:55;4.10;;;0.53;;
61391;SDS011;47261;52.892;5.738;2023-08-08T06:03:20;9.57;;;0.70;;
61391;SDS011;47261;52.892;5.738;2023-08-08T06:05:46;7.20;;;0.80;;
61391;SDS011;47261;52.892;5.738;2023-08-08T06:08:12;7.47;;;0.93;;
61391;SDS011;47261;52.892;5.738;2023-08-08T06:10:39;4.00;;;0.88;;
61391;SDS011;47261;52.892;5.738;2023-08-08T06:13:04;9.23;;;0.90;;
61391;SDS011;47261;52.892;5.738;2023-08-08T06:15:30;5.72;;;0.90;;
61391;SDS011;47261;52.892;5.738;2023-08-08T06:17:56;9.67;;;0.90;;
61391;SDS011;47261;52.892;5.738;2023-08-08T06:20:22;10.80;;;1.05;;
61391;SDS011;47261;52.892;5.738;2023-08-08T06:22:48;7.57;;;0.77;;
61391;SDS011;47261;52.892;5.738;2023-08-08T06:25:14;8.52;;;1.08;;
61391;SDS011;47261;52.892;5.738;2023-08-08T06:27:40;4.22;;;0.50;;
61391;SDS011;47261;52.892;5.738;2023-08-08T06:30:05;5.03;;;0.73;;
61391;SDS011;47261;52.892;5.738;2023-08-08T06:32:33;5.22;;;0.80;;
61391;SDS011;47261;52.892;5.738;2023-08-08T06:34:59;3.35;;;0.57;;
61391;SDS011;47261;52.892;5.738;2023-08-08T06:37:25;5.67;;;0.50;;
61391;SDS011;47261;52.892;5.738;2023-08-08T06:39:50;2.08;;;0.40;;
61391;SDS011;47261;52.892;5.738;2023-08-08T06:42:16;5.63;;;0.80;;
61391;SDS011;47261;52.892;5.738;2023-08-08T06:44:42;7.93;;;0.73;;
61391;SDS011;47261;52.892;5.738;2023-08-08T06:47:08;5.67;;;0.80;;
61391;SDS011;47261;52.892;5.738;2023-08-08T06:49:34;2.38;;;0.45;;
61391;SDS011;47261;52.892;5.738;2023-08-08T06:52:00;5.35;;;0.50;;
61391;SDS011;47261;52.892;5.738;2023-08-08T06:54:26;3.80;;;0.60;;
61391;SDS011;47261;52.892;5.738;2023-08-08T06:56:53;6.13;;;0.70;;
61391;SDS011;47261;52.892;5.738;2023-08-08T06:59:21;6.68;;;0.73;;
61391;SDS011;47261;52.892;5.738;2023-08-08T07:01:47;11.48;;;0.75;;
61391;SDS011;47261;52.892;5.738;2023-08-08T07:04:13;3.90;;;0.60;;
61391;SDS011;47261;52.892;5.738;2023-08-08T07:06:39;5.50;;;0.77;;
61391;SDS011;47261;52.892;5.738;2023-08-08T07:09:05;3.60;;;0.80;;
61391;SDS011;47261;52.892;5.738;2023-08-08T07:11:35;3.20;;;0.50;;
61391;SDS011;47261;52.892;5.738;2023-08-08T07:14:01;5.22;;;0.50;;
61391;SDS011;47261;52.892;5.738;2023-08-08T07:16:27;7.95;;;0.75;;
61391;SDS011;47261;52.892;5.738;2023-08-08T07:18:52;3.77;;;0.50;;
61391;SDS011;47261;52.892;5.738;2023-08-08T07:21:18;4.60;;;0.60;;
61391;SDS011;47261;52.892;5.738;2023-08-08T07:23:43;3.55;;;0.40;;
61391;SDS011;47261;52.892;5.738;2023-08-08T07:26:09;5.80;;;0.67;;
61391;SDS011;47261;52.892;5.738;2023-08-08T07:28:35;6.65;;;0.88;;
61391;SDS011;47261;52.892;5.738;2023-08-08T07:31:01;7.70;;;0.60;;
61391;SDS011;47261;52.892;5.738;2023-08-08T07:33:27;7.90;;;0.83;;
61391;SDS011;47261;52.892;5.738;2023-08-08T07:35:52;8.15;;;0.70;;
61391;SDS011;47261;52.892;5.738;2023-08-08T07:38:18;5.47;;;0.70;;
61391;SDS011;47261;52.892;5.738;2023-08-08T07:40:44;18.23;;;1.13;;
61391;SDS011;47261;52.892;5.738;2023-08-08T07:43:11;2.90;;;0.63;;
61391;SDS011;47261;52.892;5.738;2023-08-08T07:45:36;3.97;;;0.50;;
61391;SDS011;47261;52.892;5.738;2023-08-08T07:48:03;6.53;;;0.60;;
61391;SDS011;47261;52.892;5.738;2023-08-08T07:50:29;3.03;;;0.45;;
61391;SDS011;47261;52.892;5.738;2023-08-08T07:52:54;7.35;;;0.55;;
61391;SDS011;47261;52.892;5.738;2023-08-08T07:55:20;4.77;;;0.60;;
61391;SDS011;47261;52.892;5.738;2023-08-08T07:57:46;5.47;;;0.80;;
61391;SDS011;47261;52.892;5.738;2023-08-08T08:00:12;5.77;;;0.83;;
61391;SDS011;47261;52.892;5.738;2023-08-08T08:02:39;4.88;;;0.60;;
61391;SDS011;47261;52.892;5.738;2023-08-08T08:05:06;2.85;;;0.70;;
61391;SDS011;47261;52.892;5.738;2023-08-08T08:07:33;5.25;;;0.50;;
61391;SDS011;47261;52.892;5.738;2023-08-08T08:10:00;5.03;;;0.63;;
61391;SDS011;47261;52.892;5.738;2023-08-08T08:12:30;8.57;;;0.70;;
61391;SDS011;47261;52.892;5.738;2023-08-08T08:14:56;5.18;;;0.70;;
61391;SDS011;47261;52.892;5.738;2023-08-08T08:17:22;6.00;;;0.60;;
61391;SDS011;47261;52.892;5.738;2023-08-08T08:19:49;4.20;;;0.60;;
61391;SDS011;47261;52.892;5.738;2023-08-08T08:22:15;4.53;;;0.50;;
61391;SDS011;47261;52.892;5.738;2023-08-08T08:24:41;1.55;;;0.30;;
61391;SDS011;47261;52.892;5.738;2023-08-08T08:27:06;6.40;;;0.70;;
61391;SDS011;47261;52.892;5.738;2023-08-08T08:29:32;3.37;;;0.50;;
61391;SDS011;47261;52.892;5.738;2023-08-08T08:31:58;5.60;;;0.60;;
61391;SDS011;47261;52.892;5.738;2023-08-08T08:34:23;2.42;;;0.47;;
61391;SDS011;47261;52.892;5.738;2023-08-08T08:36:49;5.73;;;0.70;;
61391;SDS011;47261;52.892;5.738;2023-08-08T08:39:15;5.80;;;0.57;;
61391;SDS011;47261;52.892;5.738;2023-08-08T08:41:41;5.10;;;1.03;;
61391;SDS011;47261;52.892;5.738;2023-08-08T08:44:08;3.88;;;0.50;;
61391;SDS011;47261;52.892;5.738;2023-08-08T08:46:34;8.13;;;0.67;;
61391;SDS011;47261;52.892;5.738;2023-08-08T08:49:02;5.32;;;0.70;;
61391;SDS011;47261;52.892;5.738;2023-08-08T08:51:30;3.47;;;0.50;;
61391;SDS011;47261;52.892;5.738;2023-08-08T08:53:56;5.30;;;0.53;;
61391;SDS011;47261;52.892;5.738;2023-08-08T08:56:23;3.67;;;0.40;;
61391;SDS011;47261;52.892;5.738;2023-08-08T08:58:49;4.20;;;0.65;;
61391;SDS011;47261;52.892;5.738;2023-08-08T09:01:15;3.70;;;0.38;;
61391;SDS011;47261;52.892;5.738;2023-08-08T09:03:43;6.00;;;0.70;;
61391;SDS011;47261;52.892;5.738;2023-08-08T09:06:10;3.83;;;0.70;;
61391;SDS011;47261;52.892;5.738;2023-08-08T09:08:37;3.63;;;0.60;;
61391;SDS011;47261;52.892;5.738;2023-08-08T09:11:03;4.82;;;0.60;;
61391;SDS011;47261;52.892;5.738;2023-08-08T09:13:38;5.63;;;0.80;;
61391;SDS011;47261;52.892;5.738;2023-08-08T09:16:05;2.88;;;0.50;;
61391;SDS011;47261;52.892;5.738;2023-08-08T09:18:33;4.00;;;0.65;;
61391;SDS011;47261;52.892;5.738;2023-08-08T09:20:59;3.58;;;0.50;;
61391;SDS011;47261;52.892;5.738;2023-08-08T09:23:25;3.00;;;0.67;;
61391;SDS011;47261;52.892;5.738;2023-08-08T09:25:51;6.82;;;0.70;;
61391;SDS011;47261;52.892;5.738;2023-08-08T09:28:17;5.33;;;0.83;;
61391;SDS011;47261;52.892;5.738;2023-08-08T09:30:43;4.65;;;0.75;;
61391;SDS011;47261;52.892;5.738;2023-08-08T09:33:09;5.93;;;0.57;;
61391;SDS011;47261;52.892;5.738;2023-08-08T09:35:37;7.22;;;0.75;;
61391;SDS011;47261;52.892;5.738;2023-08-08T09:38:04;6.97;;;0.82;;
61391;SDS011;47261;52.892;5.738;2023-08-08T09:40:30;5.50;;;1.00;;
61391;SDS011;47261;52.892;5.738;2023-08-08T09:42:56;3.75;;;0.60;;
61391;SDS011;47261;52.892;5.738;2023-08-08T09:45:23;3.30;;;0.70;;
61391;SDS011;47261;52.892;5.738;2023-08-08T09:47:50;4.10;;;0.60;;
61391;SDS011;47261;52.892;5.738;2023-08-08T09:50:17;6.18;;;0.75;;
61391;SDS011;47261;52.892;5.738;2023-08-08T09:52:45;5.20;;;0.70;;
61391;SDS011;47261;52.892;5.738;2023-08-08T09:55:11;7.65;;;0.70;;
61391;SDS011;47261;52.892;5.738;2023-08-08T09:57:41;8.48;;;0.52;;
61391;SDS011;47261;52.892;5.738;2023-08-08T10:00:08;7.60;;;0.80;;
61391;SDS011;47261;52.892;5.738;2023-08-08T10:02:40;8.20;;;0.73;;
61391;SDS011;47261;52.892;5.738;2023-08-08T10:05:10;2.63;;;0.73;;
61391;SDS011;47261;52.892;5.738;2023-08-08T10:07:38;5.70;;;0.88;;
61391;SDS011;47261;52.892;5.738;2023-08-08T10:10:06;3.58;;;0.50;;
61391;SDS011;47261;52.892;5.738;2023-08-08T10:12:34;5.32;;;0.60;;
61391;SDS011;47261;52.892;5.738;2023-08-08T10:15:07;5.75;;;0.80;;
61391;SDS011;47261;52.892;5.738;2023-08-08T10:17:39;11.37;;;1.17;;
61391;SDS011;47261;52.892;5.738;2023-08-08T10:20:08;10.77;;;1.73;;
61391;SDS011;47261;52.892;5.738;2023-08-08T10:22:41;3.60;;;0.57;;
61391;SDS011;47261;52.892;5.738;2023-08-08T10:25:08;3.22;;;0.50;;
61391;SDS011;47261;52.892;5.738;2023-08-08T10:27:34;4.80;;;0.70;;
61391;SDS011;47261;52.892;5.738;2023-08-08T10:30:02;6.72;;;0.73;;
61391;SDS011;47261;52.892;5.738;2023-08-08T10:32:28;4.50;;;1.80;;
61391;SDS011;47261;52.892;5.738;2023-08-08T10:34:54;5.13;;;0.60;;
61391;SDS011;47261;52.892;5.738;2023-08-08T10:37:21;3.75;;;0.85;;
61391;SDS011;47261;52.892;5.738;2023-08-08T10:39:50;3.38;;;0.88;;
61391;SDS011;47261;52.892;5.738;2023-08-08T10:42:18;6.20;;;1.15;;
61391;SDS011;47261;52.892;5.738;2023-08-08T10:44:50;6.15;;;0.63;;
61391;SDS011;47261;52.892;5.738;2023-08-08T10:47:21;3.80;;;0.60;;
61391;SDS011;47261;52.892;5.738;2023-08-08T10:49:58;2.92;;;0.70;;
61391;SDS011;47261;52.892;5.738;2023-08-08T10:52:23;5.43;;;0.70;;
61391;SDS011;47261;52.892;5.738;2023-08-08T10:54:52;3.97;;;0.63;;
61391;SDS011;47261;52.892;5.738;2023-08-08T10:57:24;3.35;;;0.68;;
61391;SDS011;47261;52.892;5.738;2023-08-08T10:59:51;6.30;;;0.77;;
61391;SDS011;47261;52.892;5.738;2023-08-08T11:02:19;4.40;;;0.60;;
61391;SDS011;47261;52.892;5.738;2023-08-08T11:04:45;6.37;;;0.80;;
61391;SDS011;47261;52.892;5.738;2023-08-08T11:07:11;4.15;;;0.73;;
61391;SDS011;47261;52.892;5.738;2023-08-08T11:09:39;5.03;;;0.55;;
61391;SDS011;47261;52.892;5.738;2023-08-08T11:12:04;6.10;;;0.63;;
61391;SDS011;47261;52.892;5.738;2023-08-08T11:14:32;3.90;;;0.55;;
61391;SDS011;47261;52.892;5.738;2023-08-08T11:16:58;5.90;;;0.70;;
61391;SDS011;47261;52.892;5.738;2023-08-08T11:19:23;5.73;;;0.60;;
61391;SDS011;47261;52.892;5.738;2023-08-08T11:21:49;2.28;;;0.40;;
61391;SDS011;47261;52.892;5.738;2023-08-08T11:24:15;3.40;;;0.53;;
61391;SDS011;47261;52.892;5.738;2023-08-08T11:26:42;6.07;;;0.50;;
61391;SDS011;47261;52.892;5.738;2023-08-08T11:29:10;2.60;;;0.60;;
61391;SDS011;47261;52.892;5.738;2023-08-08T11:31:36;13.23;;;0.90;;
61391;SDS011;47261;52.892;5.738;2023-08-08T11:34:03;8.07;;;0.60;;
61391;SDS011;47261;52.892;5.738;2023-08-08T11:36:30;9.82;;;1.10;;
61391;SDS011;47261;52.892;5.738;2023-08-08T11:38:57;4.13;;;0.68;;
61391;SDS011;47261;52.892;5.738;2023-08-08T11:41:26;6.20;;;1.13;;
61391;SDS011;47261;52.892;5.738;2023-08-08T11:43:52;3.30;;;0.80;;
61391;SDS011;47261;52.892;5.738;2023-08-08T11:46:18;4.07;;;0.70;;
61391;SDS011;47261;52.892;5.738;2023-08-08T11:48:48;5.57;;;0.73;;
61391;SDS011;47261;52.892;5.738;2023-08-08T11:51:14;13.43;;;0.80;;
61391;SDS011;47261;52.892;5.738;2023-08-08T11:53:51;4.70;;;0.90;;
61391;SDS011;47261;52.892;5.738;2023-08-08T11:56:21;5.82;;;0.80;;
61391;SDS011;47261;52.892;5.738;2023-08-08T11:58:49;3.67;;;0.57;;
61391;SDS011;47261;52.892;5.738;2023-08-08T12:01:19;4.65;;;0.70;;
61391;SDS011;47261;52.892;5.738;2023-08-08T12:03:45;2.93;;;0.50;;
61391;SDS011;47261;52.892;5.738;2023-08-08T12:06:12;4.45;;;0.70;;
61391;SDS011;47261;52.892;5.738;2023-08-08T12:08:39;3.80;;;0.63;;
61391;SDS011;47261;52.892;5.738;2023-08-08T12:11:08;6.22;;;0.80;;
61391;SDS011;47261;52.892;5.738;2023-08-08T12:13:33;4.15;;;0.80;;
61391;SDS011;47261;52.892;5.738;2023-08-08T12:16:03;5.97;;;0.60;;
61391;SDS011;47261;52.892;5.738;2023-08-08T12:18:29;5.18;;;0.68;;
61391;SDS011;47261;52.892;5.738;2023-08-08T12:20:55;3.08;;;0.47;;
61391;SDS011;47261;52.892;5.738;2023-08-08T12:23:21;6.53;;;0.77;;
61391;SDS011;47261;52.892;5.738;2023-08-08T12:25:46;5.13;;;0.80;;
61391;SDS011;47261;52.892;5.738;2023-08-08T12:28:12;3.92;;;0.85;;
61391;SDS011;47261;52.892;5.738;2023-08-08T12:30:38;3.83;;;0.60;;
61391;SDS011;47261;52.892;5.738;2023-08-08T12:33:04;4.70;;;0.75;;
61391;SDS011;47261;52.892;5.738;2023-08-08T12:35:29;4.80;;;0.70;;
61391;SDS011;47261;52.892;5.738;2023-08-08T12:37:55;6.38;;;0.70;;
61391;SDS011;47261;52.892;5.738;2023-08-08T12:40:21;4.97;;;0.60;;
61391;SDS011;47261;52.892;5.738;2023-08-08T12:42:46;3.72;;;0.70;;
61391;SDS011;47261;52.892;5.738;2023-08-08T12:45:13;7.80;;;0.50;;
61391;SDS011;47261;52.892;5.738;2023-08-08T12:47:39;2.45;;;0.47;;
61391;SDS011;47261;52.892;5.738;2023-08-08T12:50:05;3.70;;;0.70;;
61391;SDS011;47261;52.892;5.738;2023-08-08T12:52:31;6.43;;;1.07;;
61391;SDS011;47261;52.892;5.738;2023-08-08T12:54:57;6.18;;;0.70;;
61391;SDS011;47261;52.892;5.738;2023-08-08T12:57:22;1.60;;;0.40;;
61391;SDS011;47261;52.892;5.738;2023-08-08T12:59:48;5.50;;;0.70;;
61391;SDS011;47261;52.892;5.738;2023-08-08T13:02:13;4.63;;;0.70;;
61391;SDS011;47261;52.892;5.738;2023-08-08T13:04:39;4.82;;;0.47;;
61391;SDS011;47261;52.892;5.738;2023-08-08T13:07:05;3.30;;;0.67;;
61391;SDS011;47261;52.892;5.738;2023-08-08T13:09:30;6.10;;;0.63;;
61391;SDS011;47261;52.892;5.738;2023-08-08T13:11:56;6.05;;;0.57;;
61391;SDS011;47261;52.892;5.738;2023-08-08T13:14:21;2.33;;;0.37;;
61391;SDS011;47261;52.892;5.738;2023-08-08T13:16:47;1.55;;;0.40;;
61391;SDS011;47261;52.892;5.738;2023-08-08T13:19:13;3.80;;;0.50;;
61391;SDS011;47261;52.892;5.738;2023-08-08T13:21:41;9.55;;;0.95;;
61391;SDS011;47261;52.892;5.738;2023-08-08T13:24:07;3.95;;;0.90;;
61391;SDS011;47261;52.892;5.738;2023-08-08T13:26:35;4.50;;;0.82;;
61391;SDS011;47261;52.892;5.738;2023-08-08T13:29:00;6.97;;;0.60;;
61391;SDS011;47261;52.892;5.738;2023-08-08T13:31:26;4.60;;;0.73;;
61391;SDS011;47261;52.892;5.738;2023-08-08T13:33:51;3.00;;;0.65;;
61391;SDS011;47261;52.892;5.738;2023-08-08T13:36:17;4.60;;;1.00;;
61391;SDS011;47261;52.892;5.738;2023-08-08T13:38:43;7.93;;;0.80;;
61391;SDS011;47261;52.892;5.738;2023-08-08T13:41:08;7.53;;;0.90;;
61391;SDS011;47261;52.892;5.738;2023-08-08T13:43:34;2.97;;;0.70;;
61391;SDS011;47261;52.892;5.738;2023-08-08T13:46:00;3.03;;;0.70;;
61391;SDS011;47261;52.892;5.738;2023-08-08T13:48:25;4.13;;;0.50;;
61391;SDS011;47261;52.892;5.738;2023-08-08T13:50:52;3.17;;;0.57;;
61391;SDS011;47261;52.892;5.738;2023-08-08T13:53:17;4.18;;;0.80;;
61391;SDS011;47261;52.892;5.738;2023-08-08T13:55:43;3.57;;;0.70;;
61391;SDS011;47261;52.892;5.738;2023-08-08T13:58:09;7.20;;;0.95;;
61391;SDS011;47261;52.892;5.738;2023-08-08T14:00:35;5.57;;;0.93;;
61391;SDS011;47261;52.892;5.738;2023-08-08T14:03:01;4.27;;;0.83;;
61391;SDS011;47261;52.892;5.738;2023-08-08T14:05:27;2.65;;;0.47;;
61391;SDS011;47261;52.892;5.738;2023-08-08T14:07:54;5.20;;;1.02;;
61391;SDS011;47261;52.892;5.738;2023-08-08T14:10:20;5.15;;;0.98;;
61391;SDS011;47261;52.892;5.738;2023-08-08T14:12:45;2.93;;;0.70;;
61391;SDS011;47261;52.892;5.738;2023-08-08T14:15:11;5.40;;;1.05;;
61391;SDS011;47261;52.892;5.738;2023-08-08T14:17:36;5.07;;;0.60;;
61391;SDS011;47261;52.892;5.738;2023-08-08T14:20:02;3.50;;;0.40;;
61391;SDS011;47261;52.892;5.738;2023-08-08T14:22:29;2.63;;;0.50;;
61391;SDS011;47261;52.892;5.738;2023-08-08T14:24:55;5.65;;;0.82;;
61391;SDS011;47261;52.892;5.738;2023-08-08T14:27:21;2.57;;;0.43;;
61391;SDS011;47261;52.892;5.738;2023-08-08T14:29:47;3.55;;;0.63;;
61391;SDS011;47261;52.892;5.738;2023-08-08T14:32:13;6.15;;;0.93;;
61391;SDS011;47261;52.892;5.738;2023-08-08T14:34:39;6.43;;;1.00;;
61391;SDS011;47261;52.892;5.738;2023-08-08T14:37:05;5.82;;;0.73;;
61391;SDS011;47261;52.892;5.738;2023-08-08T14:39:31;3.93;;;0.50;;
61391;SDS011;47261;52.892;5.738;2023-08-08T14:41:57;5.90;;;0.65;;